• Join FlightAware (Why Join?)
  • Login
  • US Flag 
Gobble Gobble! 
03:28AM EST


 

Airport Tracker/Info


-or-


 

Live Flight TrackerFlight Track Log ✈ EJA583 ✈ 11-Sep-2013 ✈ KJAC - KRAP

Flight Track Log - Related Links

Times and Time Zones

All times are in EDT time to prevent confusion due to time zone crossing. See the EJA583 flight status page for this flight to view local times or setup timezone preferences in your user account.

Time Position Orientation Groundspeed Altitude Reporting Facility
EDT Latitude Longitude Course Direction KTS MPH feet Rate Location/Type
10:33AM 43.6339 -110.7239 86° East 192 221 7,600  Level Salt Lake Center
10:34AM 43.6994 -110.6694 31° Northeast 249 287 10,700 2,880 Climbing Salt Lake Center
10:35AM 43.7667 -110.6142 31° Northeast 274 315 13,600 2,820 Climbing Salt Lake Center
10:36AM 43.6822 -109.8806 83° East  Level Estimated
10:36AM 43.7928 -110.5139 70° East 281 323 16,600  Level Salt Lake Center
10:37AM 43.6940 -109.7375 81° East  Level Estimated
10:37AM 43.7997 -110.4042 85° East 285 328 19,000  Level Salt Lake Center
10:38AM 43.7057 -109.5944 86° East  Level Estimated
10:38AM 43.8078 -110.2861 85° East 293 337 21,700  Level Salt Lake Center
10:39AM 43.8147 -110.1747 85° East 304 350 24,100 2,220 Climbing Salt Lake Center
10:40AM 43.8231 -110.0433 85° East 307 353 26,400 1,800 Climbing Salt Lake Center
10:41AM 43.8303 -109.9192 85° East 331 381 27,900 1,500 Climbing Salt Lake Center
10:42AM 43.8392 -109.7653 85° East 357 411 29,600 1,440 Climbing Salt Lake Center
10:43AM 43.8478 -109.6281 85° East 371 427 30,900 1,380 Climbing Salt Lake Center
10:44AM 43.8581 -109.4625 85° East 385 443 32,500 1,560 Climbing Salt Lake Center
10:45AM 43.8644 -109.3186 86° East 378 435 34,100 1,200 Climbing Salt Lake Center
10:46AM 43.8733 -109.1714 85° East 384 442 35,000 420 Climbing Salt Lake Center
10:47AM 43.8822 -109.0092 86° East 416 479 35,000  Level Salt Lake Center
10:48AM 43.8914 -108.8414 86° East 435 501 35,000  Level Salt Lake Center
10:49AM 43.8997 -108.6736 86° East 440 506 35,000  Level Salt Lake Center
10:50AM 43.9092 -108.4714 86° East 440 506 35,000  Level Salt Lake Center
10:51AM 43.9167 -108.3058 86° East 435 501 35,000  Level Salt Lake Center
10:52AM 43.9253 -108.1397 86° East 435 501 35,000  Level Salt Lake Center
10:53AM 43.9328 -107.9708 86° East 439 505 35,000  Level Salt Lake Center
10:54AM 43.9394 -107.8031 87° East 439 505 35,000  Level Salt Lake Center
10:55AM 43.9483 -107.6011 86° East 441 507 35,000  Level Salt Lake Center
10:56AM 43.9542 -107.4331 87° East 439 505 35,000  Level Salt Lake Center
10:57AM 43.9600 -107.2650 87° East 441 507 35,000  Level Salt Lake Center
10:58AM 43.9678 -107.0967 86° East 441 507 35,000  Level Salt Lake Center
10:59AM 43.9736 -106.9278 87° East 442 509 35,000  Level Salt Lake Center
11:00AM 43.9806 -106.7703 86° East 443 510 35,000  Level Denver Center
11:01AM 43.9869 -106.5806 87° East 443 510 35,000  Level Denver Center
11:02AM 43.9914 -106.4178 88° East 442 509 35,000 -420 Level Denver Center
11:03AM 43.9983 -106.2278 87° East 440 506 34,200 -960 Descending Denver Center
11:04AM 44.0036 -106.0636 87° East 443 510 33,100 -720 Descending Denver Center
11:05AM 44.0089 -105.8794 88° East 433 498 32,800 -660 Descending Denver Center
11:07AM 44.0119 -105.6661 89° East 433 498 31,600 -1,020 Descending Denver Center
11:08AM 44.0156 -105.4975 88° East 448 516 30,600 -1,020 Descending Denver Center
11:09AM 44.0203 -105.3289 88° East 453 521 29,600 -1,020 Descending Denver Center
11:10AM 44.0250 -105.1347 88° East 452 520 28,500 -1,020 Descending Denver Center
11:11AM 44.0275 -104.9714 89° East 446 513 27,500 -780 Descending Denver Center
11:12AM 44.0297 -104.7811 89° East 443 510 27,000 -960 Descending Denver Center
11:13AM 44.0328 -104.6181 88° East 442 509 25,600 -1,500 Descending Denver Center
11:14AM 44.0367 -104.4367 88° East 427 491 23,900 -1,620 Descending Denver Center
11:15AM 44.0333 -104.2900 92° East 432 497 22,500 -1,500 Descending Denver Center
11:15AM 44.0378 -104.2769 65° Northeast 428 493 22,400 -1,620 Descending Denver Center
11:16AM 44.0361 -104.1247 91° East 411 473 20,900 -1,800 Descending Denver Center
11:16AM 44.0406 -104.1036 74° East 411 473 20,600 -2,400 Descending Denver Center
11:17AM 44.0378 -103.9831 92° East 376 433 18,500 -2,340 Descending Denver Center
11:17AM 44.0400 -103.9603 82° East 396 456 18,200 -2,340 Descending Denver Center
11:18AM 44.0397 -103.8444 90° East 334 384 16,200 -2,460 Descending Denver Center
11:18AM 44.0392 -103.8044 91° East 380 437 15,700 -2,400 Descending Denver Center
11:19AM 44.0419 -103.7231 87° East 317 365 13,800 -2,340 Descending Denver Center
11:19AM 44.0428 -103.6972 87° East 332 382 13,300 -2,640 Descending Denver Center
11:20AM 44.0289 -103.6031 102° East 304 350 11,200 -2,340 Descending Denver Center
11:20AM 44.0264 -103.5797 98° East 331 381 10,900 -1,200 Descending Denver Center
11:21AM 44.0136 -103.4953 102° East 291 335 10,000 -900 Descending Denver Center
11:21AM 44.0092 -103.4586 100° East 311 358 10,000  Level Denver Center
11:22AM 44.0006 -103.3900 100° East 266 306 10,000  Level Denver Center
11:22AM 43.9972 -103.3597 99° East 295 339 10,000 -240 Level Denver Center
11:23AM 43.9881 -103.2875 100° East 256 295 9,800 -600 Descending Denver Center
11:23AM 43.9817 -103.2519 104° East 275 316 9,400 -1,680 Descending Denver Center
11:24AM 43.9719 -103.1919 103° East 264 304 8,100 -1,860 Descending Denver Center
11:24AM 43.9681 -103.1603 100° East 264 304 7,500 -2,340 Descending Denver Center
11:25AM 43.9575 -103.0931 102° East 255 293 5,800 -1,080 Descending Denver Center
11:25AM 43.9556 -103.0692 96° East 257 296 6,400 -1,320 Climbing Denver Center
11:26AM 43.9775 -103.0136 61° Northeast 195 224 4,500 -1,740 Descending Denver Center
11:27AM 44.0128 -103.0361 335° Northwest 125 144 3,600 -900 Descending Denver Center
11:29AM 44.0333 -103.0500 90° East  Level FlightAware Approximate